sensor_id;sensor_type;location;lat;lon;timestamp;pressure;altitude;pressure_sealevel;temperature
66604;BMP280;53460;39.612;8.822;2024-03-02T00:02:16;96429.50;;;10.24
66604;BMP280;53460;39.612;8.822;2024-03-02T00:04:44;96399.56;;;10.20
66604;BMP280;53460;39.612;8.822;2024-03-02T00:07:10;96364.97;;;10.16
66604;BMP280;53460;39.612;8.822;2024-03-02T00:09:39;96334.31;;;10.27
66604;BMP280;53460;39.612;8.822;2024-03-02T00:12:05;96327.72;;;10.16
66604;BMP280;53460;39.612;8.822;2024-03-02T00:14:31;96307.75;;;10.19
66604;BMP280;53460;39.612;8.822;2024-03-02T00:16:57;96305.72;;;10.17
66604;BMP280;53460;39.612;8.822;2024-03-02T00:19:22;96291.75;;;10.21
66604;BMP280;53460;39.612;8.822;2024-03-02T00:21:48;96313.06;;;10.21
66604;BMP280;53460;39.612;8.822;2024-03-02T00:24:33;96346.97;;;10.22
66604;BMP280;53460;39.612;8.822;2024-03-02T00:27:00;96380.34;;;10.03
66604;BMP280;53460;39.612;8.822;2024-03-02T00:29:27;96374.34;;;10.06
66604;BMP280;53460;39.612;8.822;2024-03-02T00:31:53;96406.34;;;9.90
66604;BMP280;53460;39.612;8.822;2024-03-02T00:34:19;96447.00;;;9.62
66604;BMP280;53460;39.612;8.822;2024-03-02T00:36:45;96407.75;;;9.71
66604;BMP280;53460;39.612;8.822;2024-03-02T00:39:12;96397.13;;;9.69
66604;BMP280;53460;39.612;8.822;2024-03-02T00:41:41;96391.09;;;9.85
66604;BMP280;53460;39.612;8.822;2024-03-02T00:44:09;96366.38;;;9.98
66604;BMP280;53460;39.612;8.822;2024-03-02T00:46:38;96361.03;;;10.04
66604;BMP280;53460;39.612;8.822;2024-03-02T00:51:36;96353.63;;;10.25
66604;BMP280;53460;39.612;8.822;2024-03-02T00:54:05;96416.84;;;10.25
66604;BMP280;53460;39.612;8.822;2024-03-02T00:56:32;96432.16;;;10.24
66604;BMP280;53460;39.612;8.822;2024-03-02T00:58:58;96482.78;;;10.10
66604;BMP280;53460;39.612;8.822;2024-03-02T01:01:23;96518.81;;;9.68
66604;BMP280;53460;39.612;8.822;2024-03-02T01:03:49;96494.16;;;9.88
66604;BMP280;53460;39.612;8.822;2024-03-02T01:06:16;96514.13;;;9.93
66604;BMP280;53460;39.612;8.822;2024-03-02T01:08:42;96498.78;;;9.98
66604;BMP280;53460;39.612;8.822;2024-03-02T01:11:09;96472.16;;;10.08
66604;BMP280;53460;39.612;8.822;2024-03-02T01:13:34;96502.78;;;10.03
66604;BMP280;53460;39.612;8.822;2024-03-02T01:16:00;96516.13;;;9.87
66604;BMP280;53460;39.612;8.822;2024-03-02T01:18:27;96532.03;;;10.07
66604;BMP280;53460;39.612;8.822;2024-03-02T01:20:52;96553.97;;;10.20
66604;BMP280;53460;39.612;8.822;2024-03-02T01:23:20;96557.91;;;10.23
66604;BMP280;53460;39.612;8.822;2024-03-02T01:25:47;96549.31;;;10.18
66604;BMP280;53460;39.612;8.822;2024-03-02T01:28:13;96514.06;;;10.12
66604;BMP280;53460;39.612;8.822;2024-03-02T01:30:39;96506.09;;;9.95
66604;BMP280;53460;39.612;8.822;2024-03-02T01:33:06;96470.84;;;10.03
66604;BMP280;53460;39.612;8.822;2024-03-02T01:35:32;96441.59;;;9.99
66604;BMP280;53460;39.612;8.822;2024-03-02T01:37:58;96392.31;;;10.04
66604;BMP280;53460;39.612;8.822;2024-03-02T01:40:24;96348.34;;;10.13
66604;BMP280;53460;39.612;8.822;2024-03-02T01:42:53;96303.66;;;10.32
66604;BMP280;53460;39.612;8.822;2024-03-02T01:45:24;96275.66;;;10.37
66604;BMP280;53460;39.612;8.822;2024-03-02T01:47:50;96267.81;;;10.21
66604;BMP280;53460;39.612;8.822;2024-03-02T01:50:23;96267.22;;;10.12
66604;BMP280;53460;39.612;8.822;2024-03-02T01:52:49;96259.19;;;10.18
66604;BMP280;53460;39.612;8.822;2024-03-02T01:55:15;96273.22;;;10.08
66604;BMP280;53460;39.612;8.822;2024-03-02T01:57:41;96239.94;;;10.10
66604;BMP280;53460;39.612;8.822;2024-03-02T02:00:07;96201.81;;;10.31
66604;BMP280;53460;39.612;8.822;2024-03-02T02:02:37;96182.34;;;10.49
66604;BMP280;53460;39.612;8.822;2024-03-02T02:05:03;96191.53;;;10.60
66604;BMP280;53460;39.612;8.822;2024-03-02T02:07:29;96189.44;;;10.71
66604;BMP280;53460;39.612;8.822;2024-03-02T02:09:54;96208.63;;;10.82
66604;BMP280;53460;39.612;8.822;2024-03-02T02:12:20;96229.16;;;10.91
66604;BMP280;53460;39.612;8.822;2024-03-02T02:14:49;96269.22;;;10.85
66604;BMP280;53460;39.612;8.822;2024-03-02T02:17:18;96293.13;;;10.91
66604;BMP280;53460;39.612;8.822;2024-03-02T02:19:43;96333.09;;;10.93
66604;BMP280;53460;39.612;8.822;2024-03-02T02:22:10;96375.75;;;10.93
66604;BMP280;53460;39.612;8.822;2024-03-02T02:24:35;96411.13;;;10.84
66604;BMP280;53460;39.612;8.822;2024-03-02T02:27:01;96407.13;;;10.87
66604;BMP280;53460;39.612;8.822;2024-03-02T02:29:27;96409.72;;;10.93
66604;BMP280;53460;39.612;8.822;2024-03-02T02:31:53;96424.41;;;10.92
66604;BMP280;53460;39.612;8.822;2024-03-02T02:34:18;96425.69;;;10.95
66604;BMP280;53460;39.612;8.822;2024-03-02T02:36:44;96432.38;;;10.94
66604;BMP280;53460;39.612;8.822;2024-03-02T02:39:15;96445.63;;;11.00
66604;BMP280;53460;39.612;8.822;2024-03-02T02:41:42;96444.91;;;11.04
66604;BMP280;53460;39.612;8.822;2024-03-02T02:44:07;96468.97;;;10.99
66604;BMP280;53460;39.612;8.822;2024-03-02T02:46:33;96481.63;;;11.01
66604;BMP280;53460;39.612;8.822;2024-03-02T02:48:59;96493.63;;;10.98
66604;BMP280;53460;39.612;8.822;2024-03-02T02:51:24;96497.00;;;10.92
66604;BMP280;53460;39.612;8.822;2024-03-02T02:53:51;96507.00;;;10.90
66604;BMP280;53460;39.612;8.822;2024-03-02T02:56:17;96479.69;;;10.93
66604;BMP280;53460;39.612;8.822;2024-03-02T02:58:42;96479.66;;;10.91
66604;BMP280;53460;39.612;8.822;2024-03-02T03:01:08;96478.38;;;10.88
66604;BMP280;53460;39.612;8.822;2024-03-02T03:03:34;96489.78;;;10.73
66604;BMP280;53460;39.612;8.822;2024-03-02T03:05:59;96473.13;;;10.78
66604;BMP280;53460;39.612;8.822;2024-03-02T03:08:25;96466.41;;;10.79
66604;BMP280;53460;39.612;8.822;2024-03-02T03:10:51;96460.44;;;10.79
66604;BMP280;53460;39.612;8.822;2024-03-02T03:13:16;96447.25;;;10.58
66604;BMP280;53460;39.612;8.822;2024-03-02T03:15:42;96431.38;;;10.46
66604;BMP280;53460;39.612;8.822;2024-03-02T03:18:08;96403.47;;;10.37
66604;BMP280;53460;39.612;8.822;2024-03-02T03:20:36;96370.19;;;10.32
66604;BMP280;53460;39.612;8.822;2024-03-02T03:23:01;96336.94;;;10.31
66604;BMP280;53460;39.612;8.822;2024-03-02T03:25:32;96311.63;;;10.36
66604;BMP280;53460;39.612;8.822;2024-03-02T03:27:57;96294.75;;;10.60
66604;BMP280;53460;39.612;8.822;2024-03-02T03:30:23;96328.00;;;10.65
66604;BMP280;53460;39.612;8.822;2024-03-02T03:32:49;96362.56;;;10.75
66604;BMP280;53460;39.612;8.822;2024-03-02T03:35:14;96399.16;;;10.79
66604;BMP280;53460;39.612;8.822;2024-03-02T03:37:41;96435.16;;;10.76
66604;BMP280;53460;39.612;8.822;2024-03-02T03:40:07;96475.19;;;10.65
66604;BMP280;53460;39.612;8.822;2024-03-02T03:42:38;96479.84;;;10.65
66604;BMP280;53460;39.612;8.822;2024-03-02T03:45:05;96493.25;;;10.47
66604;BMP280;53460;39.612;8.822;2024-03-02T03:47:32;96479.97;;;10.41
66604;BMP280;53460;39.612;8.822;2024-03-02T03:49:58;96457.38;;;10.37
66604;BMP280;53460;39.612;8.822;2024-03-02T03:52:24;96466.75;;;10.28
66604;BMP280;53460;39.612;8.822;2024-03-02T03:54:50;96450.81;;;10.16
66604;BMP280;53460;39.612;8.822;2024-03-02T03:57:16;96432.13;;;10.22
66604;BMP280;53460;39.612;8.822;2024-03-02T03:59:42;96418.25;;;10.12
66604;BMP280;53460;39.612;8.822;2024-03-02T04:02:08;96402.31;;;10.03
66604;BMP280;53460;39.612;8.822;2024-03-02T04:04:34;96378.41;;;9.93
66604;BMP280;53460;39.612;8.822;2024-03-02T04:07:00;96379.13;;;9.84
66604;BMP280;53460;39.612;8.822;2024-03-02T04:09:26;96363.22;;;9.61
66604;BMP280;53460;39.612;8.822;2024-03-02T04:11:52;96335.31;;;9.60
66604;BMP280;53460;39.612;8.822;2024-03-02T04:14:18;96306.72;;;9.65
66604;BMP280;53460;39.612;8.822;2024-03-02T04:16:43;96274.09;;;9.70
66604;BMP280;53460;39.612;8.822;2024-03-02T04:19:09;96272.09;;;9.71
66604;BMP280;53460;39.612;8.822;2024-03-02T04:21:35;96258.84;;;9.67
66604;BMP280;53460;39.612;8.822;2024-03-02T04:24:00;96233.59;;;9.68
66604;BMP280;53460;39.612;8.822;2024-03-02T04:26:26;96196.13;;;9.96
66604;BMP280;53460;39.612;8.822;2024-03-02T04:28:52;96184.53;;;10.28
66604;BMP280;53460;39.612;8.822;2024-03-02T04:31:19;96209.16;;;10.29
66604;BMP280;53460;39.612;8.822;2024-03-02T04:33:45;96248.31;;;10.43
66604;BMP280;53460;39.612;8.822;2024-03-02T04:36:11;96286.16;;;10.53
66604;BMP280;53460;39.612;8.822;2024-03-02T04:38:40;96329.34;;;10.64
66604;BMP280;53460;39.612;8.822;2024-03-02T04:41:06;96393.91;;;10.66
66604;BMP280;53460;39.612;8.822;2024-03-02T04:43:32;96444.63;;;10.52
66604;BMP280;53460;39.612;8.822;2024-03-02T04:45:58;96469.91;;;10.55
66604;BMP280;53460;39.612;8.822;2024-03-02T04:48:24;96495.91;;;10.53
66604;BMP280;53460;39.612;8.822;2024-03-02T04:50:50;96508.59;;;10.46
66604;BMP280;53460;39.612;8.822;2024-03-02T04:53:16;96512.59;;;10.41
66604;BMP280;53460;39.612;8.822;2024-03-02T04:55:41;96504.66;;;10.33
66604;BMP280;53460;39.612;8.822;2024-03-02T04:58:07;96491.34;;;10.37
66604;BMP280;53460;39.612;8.822;2024-03-02T05:00:33;96493.31;;;10.38
66604;BMP280;53460;39.612;8.822;2024-03-02T05:02:59;96516.56;;;10.52
66604;BMP280;53460;39.612;8.822;2024-03-02T05:05:25;96546.50;;;10.57
66604;BMP280;53460;39.612;8.822;2024-03-02T05:07:51;96586.41;;;10.67
66604;BMP280;53460;39.612;8.822;2024-03-02T05:10:17;96641.72;;;10.58
66604;BMP280;53460;39.612;8.822;2024-03-02T05:12:43;96696.97;;;10.60
66604;BMP280;53460;39.612;8.822;2024-03-02T05:15:09;96764.91;;;10.69
66604;BMP280;53460;39.612;8.822;2024-03-02T05:17:39;96814.84;;;10.66
66604;BMP280;53460;39.612;8.822;2024-03-02T05:20:08;96880.16;;;10.74
66604;BMP280;53460;39.612;8.822;2024-03-02T05:22:34;96932.13;;;10.79
66604;BMP280;53460;39.612;8.822;2024-03-02T05:25:01;96974.72;;;10.73
66604;BMP280;53460;39.612;8.822;2024-03-02T05:27:27;97030.00;;;10.60
66604;BMP280;53460;39.612;8.822;2024-03-02T05:29:53;97086.47;;;10.28
66604;BMP280;53460;39.612;8.822;2024-03-02T05:32:18;97101.09;;;10.25
66604;BMP280;53460;39.612;8.822;2024-03-02T05:34:44;97117.00;;;10.15
66604;BMP280;53460;39.612;8.822;2024-03-02T05:37:10;97102.31;;;10.10
66604;BMP280;53460;39.612;8.822;2024-03-02T05:39:35;97071.69;;;10.02
66604;BMP280;53460;39.612;8.822;2024-03-02T05:42:01;96986.63;;;10.33
66604;BMP280;53460;39.612;8.822;2024-03-02T05:44:26;96957.94;;;10.23
66604;BMP280;53460;39.612;8.822;2024-03-02T05:46:52;96930.72;;;10.41
66604;BMP280;53460;39.612;8.822;2024-03-02T05:49:18;96954.03;;;10.47
66604;BMP280;53460;39.612;8.822;2024-03-02T05:51:43;96962.72;;;10.49
66604;BMP280;53460;39.612;8.822;2024-03-02T05:54:09;96935.38;;;10.38
66604;BMP280;53460;39.612;8.822;2024-03-02T05:56:35;96898.06;;;10.26
66604;BMP280;53460;39.612;8.822;2024-03-02T05:59:01;96875.44;;;10.25
66604;BMP280;53460;39.612;8.822;2024-03-02T06:01:40;96850.81;;;10.31
66604;BMP280;53460;39.612;8.822;2024-03-02T06:04:06;96821.47;;;10.08
66604;BMP280;53460;39.612;8.822;2024-03-02T06:06:32;96776.94;;;10.19
66604;BMP280;53460;39.612;8.822;2024-03-02T06:09:03;96754.97;;;10.25
66604;BMP280;53460;39.612;8.822;2024-03-02T06:11:35;96751.63;;;10.32
66604;BMP280;53460;39.612;8.822;2024-03-02T06:14:02;96789.56;;;10.33
66604;BMP280;53460;39.612;8.822;2024-03-02T06:16:27;96786.25;;;10.45
66604;BMP280;53460;39.612;8.822;2024-03-02T06:18:53;96816.22;;;10.51
66604;BMP280;53460;39.612;8.822;2024-03-02T06:21:19;96845.53;;;10.61
66604;BMP280;53460;39.612;8.822;2024-03-02T06:23:45;96875.50;;;10.62
66604;BMP280;53460;39.612;8.822;2024-03-02T06:26:11;96899.47;;;10.84
66604;BMP280;53460;39.612;8.822;2024-03-02T06:28:37;96942.78;;;10.91
66604;BMP280;53460;39.612;8.822;2024-03-02T06:31:03;97004.78;;;11.12
66604;BMP280;53460;39.612;8.822;2024-03-02T06:33:29;97060.78;;;11.22
66604;BMP280;53460;39.612;8.822;2024-03-02T06:35:54;97128.81;;;11.47
66604;BMP280;53460;39.612;8.822;2024-03-02T06:38:20;97188.22;;;11.48
66604;BMP280;53460;39.612;8.822;2024-03-02T06:40:46;97244.31;;;12.09
66604;BMP280;53460;39.612;8.822;2024-03-02T06:43:11;97379.13;;;11.77
66604;BMP280;53460;39.612;8.822;2024-03-02T06:45:37;97411.75;;;11.66
66604;BMP280;53460;39.612;8.822;2024-03-02T06:48:03;97426.56;;;11.85
66604;BMP280;53460;39.612;8.822;2024-03-02T06:50:29;97451.31;;;12.00
66604;BMP280;53460;39.612;8.822;2024-03-02T06:52:55;97473.31;;;11.92
66604;BMP280;53460;39.612;8.822;2024-03-02T06:55:23;97500.00;;;11.96
66604;BMP280;53460;39.612;8.822;2024-03-02T06:57:50;97522.47;;;11.58
66604;BMP280;53460;39.612;8.822;2024-03-02T07:00:16;97449.22;;;11.82
66604;BMP280;53460;39.612;8.822;2024-03-02T07:02:44;97416.56;;;12.02
66604;BMP280;53460;39.612;8.822;2024-03-02T07:05:10;97437.31;;;12.07
66604;BMP280;53460;39.612;8.822;2024-03-02T07:07:36;97460.06;;;12.18
66604;BMP280;53460;39.612;8.822;2024-03-02T07:10:05;97456.09;;;12.32
66604;BMP280;53460;39.612;8.822;2024-03-02T07:12:33;97487.56;;;12.49
66604;BMP280;53460;39.612;8.822;2024-03-02T07:14:58;97542.38;;;12.63
66604;BMP280;53460;39.612;8.822;2024-03-02T07:17:31;97704.22;;;12.76
66604;BMP280;53460;39.612;8.822;2024-03-02T07:19:57;97819.84;;;12.70
66604;BMP280;53460;39.612;8.822;2024-03-02T07:22:22;97908.34;;;13.03
66604;BMP280;53460;39.612;8.822;2024-03-02T07:24:48;98006.28;;;13.36
66604;BMP280;53460;39.612;8.822;2024-03-02T07:27:15;98090.16;;;15.27
66604;BMP280;53460;39.612;8.822;2024-03-02T07:29:41;98413.91;;;15.46
66604;BMP280;53460;39.612;8.822;2024-03-02T07:32:08;98582.03;;;15.76
66604;BMP280;53460;39.612;8.822;2024-03-02T07:34:34;98697.19;;;15.29
66604;BMP280;53460;39.612;8.822;2024-03-02T07:37:00;98848.16;;;18.57
66604;BMP280;53460;39.612;8.822;2024-03-02T07:39:26;99021.47;;;17.88
66604;BMP280;53460;39.612;8.822;2024-03-02T07:41:52;99110.41;;;16.33
66604;BMP280;53460;39.612;8.822;2024-03-02T07:44:18;99050.13;;;14.72
66604;BMP280;53460;39.612;8.822;2024-03-02T07:46:45;98896.44;;;15.15
66604;BMP280;53460;39.612;8.822;2024-03-02T07:49:20;99337.91;;;24.86
66604;BMP280;53460;39.612;8.822;2024-03-02T07:51:46;99785.78;;;26.25
66604;BMP280;53460;39.612;8.822;2024-03-02T07:54:11;99956.63;;;24.93
66604;BMP280;53460;39.612;8.822;2024-03-02T07:56:37;99979.31;;;26.62
66604;BMP280;53460;39.612;8.822;2024-03-02T07:59:04;100024.31;;;25.40
66604;BMP280;53460;39.612;8.822;2024-03-02T08:01:30;100026.69;;;27.57
66604;BMP280;53460;39.612;8.822;2024-03-02T08:04:01;100062.34;;;27.57
66604;BMP280;53460;39.612;8.822;2024-03-02T08:06:28;100032.47;;;27.12
66604;BMP280;53460;39.612;8.822;2024-03-02T08:08:54;100036.34;;;27.56
66604;BMP280;53460;39.612;8.822;2024-03-02T08:11:21;100045.16;;;27.28
66604;BMP280;53460;39.612;8.822;2024-03-02T08:13:47;100051.44;;;28.42
66604;BMP280;53460;39.612;8.822;2024-03-02T08:16:17;100058.41;;;26.80
66604;BMP280;53460;39.612;8.822;2024-03-02T08:18:46;100053.06;;;27.73
66604;BMP280;53460;39.612;8.822;2024-03-02T08:21:12;100060.56;;;29.10
66604;BMP280;53460;39.612;8.822;2024-03-02T08:23:39;100078.09;;;29.67
66604;BMP280;53460;39.612;8.822;2024-03-02T08:26:06;100057.91;;;26.28
66604;BMP280;53460;39.612;8.822;2024-03-02T08:28:32;100061.00;;;29.85
66604;BMP280;53460;39.612;8.822;2024-03-02T08:30:58;100071.69;;;28.55
66604;BMP280;53460;39.612;8.822;2024-03-02T08:33:24;100064.56;;;26.79
66604;BMP280;53460;39.612;8.822;2024-03-02T08:35:50;99975.09;;;20.66
66604;BMP280;53460;39.612;8.822;2024-03-02T08:38:16;99978.19;;;23.56
66604;BMP280;53460;39.612;8.822;2024-03-02T08:40:42;99965.91;;;25.16
66604;BMP280;53460;39.612;8.822;2024-03-02T08:43:07;99952.22;;;23.70
66604;BMP280;53460;39.612;8.822;2024-03-02T08:45:33;99909.06;;;21.47
66604;BMP280;53460;39.612;8.822;2024-03-02T08:48:00;99883.38;;;22.25
66604;BMP280;53460;39.612;8.822;2024-03-02T08:50:26;99883.34;;;23.85
66604;BMP280;53460;39.612;8.822;2024-03-02T08:52:52;99956.22;;;26.16
66604;BMP280;53460;39.612;8.822;2024-03-02T08:55:17;99922.03;;;21.62
66604;BMP280;53460;39.612;8.822;2024-03-02T08:57:43;99788.94;;;18.19
66604;BMP280;53460;39.612;8.822;2024-03-02T09:00:09;99705.25;;;20.37
66604;BMP280;53460;39.612;8.822;2024-03-02T09:02:35;99940.31;;;22.92
66604;BMP280;53460;39.612;8.822;2024-03-02T09:05:01;99935.03;;;24.71
66604;BMP280;53460;39.612;8.822;2024-03-02T09:07:27;99944.44;;;22.99
66604;BMP280;53460;39.612;8.822;2024-03-02T09:09:52;99859.69;;;18.54
66604;BMP280;53460;39.612;8.822;2024-03-02T09:12:19;99980.06;;;27.59
66604;BMP280;53460;39.612;8.822;2024-03-02T09:14:45;100028.25;;;31.66
66604;BMP280;53460;39.612;8.822;2024-03-02T09:17:12;99968.22;;;22.90
66604;BMP280;53460;39.612;8.822;2024-03-02T09:19:38;99954.22;;;23.77
66604;BMP280;53460;39.612;8.822;2024-03-02T09:22:04;99932.25;;;22.04
66604;BMP280;53460;39.612;8.822;2024-03-02T09:24:32;99928.19;;;22.48
66604;BMP280;53460;39.612;8.822;2024-03-02T09:26:59;99868.34;;;20.17
66604;BMP280;53460;39.612;8.822;2024-03-02T09:29:24;99805.69;;;19.08
66604;BMP280;53460;39.612;8.822;2024-03-02T09:31:50;99710.88;;;18.36
66604;BMP280;53460;39.612;8.822;2024-03-02T09:34:16;99780.84;;;21.50
66604;BMP280;53460;39.612;8.822;2024-03-02T09:36:42;99843.97;;;21.73
66604;BMP280;53460;39.612;8.822;2024-03-02T09:39:08;99862.88;;;21.36
66604;BMP280;53460;39.612;8.822;2024-03-02T09:41:36;99825.97;;;20.58
66604;BMP280;53460;39.612;8.822;2024-03-02T09:44:02;99848.03;;;21.58
66604;BMP280;53460;39.612;8.822;2024-03-02T09:46:28;99840.94;;;20.74
66604;BMP280;53460;39.612;8.822;2024-03-02T09:48:54;99804.06;;;18.37
66604;BMP280;53460;39.612;8.822;2024-03-02T09:51:20;99803.28;;;20.09
66604;BMP280;53460;39.612;8.822;2024-03-02T09:53:47;99808.59;;;21.14
66604;BMP280;53460;39.612;8.822;2024-03-02T09:56:13;99840.53;;;22.33
66604;BMP280;53460;39.612;8.822;2024-03-02T09:58:39;99887.63;;;20.62
66604;BMP280;53460;39.612;8.822;2024-03-02T10:01:06;99844.91;;;20.54
66604;BMP280;53460;39.612;8.822;2024-03-02T10:03:33;99850.09;;;20.24
66604;BMP280;53460;39.612;8.822;2024-03-02T10:06:27;99854.13;;;20.19
66604;BMP280;53460;39.612;8.822;2024-03-02T10:08:54;99812.38;;;20.54
66604;BMP280;53460;39.612;8.822;2024-03-02T10:11:33;99841.25;;;20.15
66604;BMP280;53460;39.612;8.822;2024-03-02T10:14:09;99792.09;;;19.65
66604;BMP280;53460;39.612;8.822;2024-03-02T10:16:36;99761.66;;;19.66
66604;BMP280;53460;39.612;8.822;2024-03-02T10:19:22;99757.84;;;19.21
66604;BMP280;53460;39.612;8.822;2024-03-02T10:21:53;99648.66;;;18.84
66604;BMP280;53460;39.612;8.822;2024-03-02T10:24:20;99636.19;;;18.58
66604;BMP280;53460;39.612;8.822;2024-03-02T10:26:46;99600.00;;;18.86
66604;BMP280;53460;39.612;8.822;2024-03-02T10:29:12;99735.31;;;21.08
66604;BMP280;53460;39.612;8.822;2024-03-02T10:31:39;99827.44;;;20.88
66604;BMP280;53460;39.612;8.822;2024-03-02T10:34:06;99869.03;;;22.55
66604;BMP280;53460;39.612;8.822;2024-03-02T10:36:33;99856.19;;;20.24
66604;BMP280;53460;39.612;8.822;2024-03-02T10:39:04;99884.69;;;21.59
66604;BMP280;53460;39.612;8.822;2024-03-02T10:41:35;99873.91;;;20.36
66604;BMP280;53460;39.612;8.822;2024-03-02T10:44:05;99872.13;;;20.71
66604;BMP280;53460;39.612;8.822;2024-03-02T10:46:32;99857.47;;;20.13
66604;BMP280;53460;39.612;8.822;2024-03-02T10:48:59;99883.34;;;22.45
66604;BMP280;53460;39.612;8.822;2024-03-02T10:51:26;99882.00;;;21.95
66604;BMP280;53460;39.612;8.822;2024-03-02T10:53:53;99873.03;;;21.20
66604;BMP280;53460;39.612;8.822;2024-03-02T10:56:22;99893.53;;;22.52
66604;BMP280;53460;39.612;8.822;2024-03-02T11:01:25;99918.69;;;22.37
66604;BMP280;53460;39.612;8.822;2024-03-02T11:03:51;99896.97;;;21.94
66604;BMP280;53460;39.612;8.822;2024-03-02T11:06:17;99901.72;;;20.44
66604;BMP280;53460;39.612;8.822;2024-03-02T11:08:46;99881.06;;;19.96
66604;BMP280;53460;39.612;8.822;2024-03-02T11:11:19;99882.50;;;21.13
66604;BMP280;53460;39.612;8.822;2024-03-02T11:13:49;99895.59;;;22.32
66604;BMP280;53460;39.612;8.822;2024-03-02T11:16:34;99869.75;;;21.62
66604;BMP280;53460;39.612;8.822;2024-03-02T11:19:09;99881.72;;;23.19
66604;BMP280;53460;39.612;8.822;2024-03-02T11:21:36;99868.13;;;23.19
66604;BMP280;53460;39.612;8.822;2024-03-02T11:26:47;99885.97;;;22.81
66604;BMP280;53460;39.612;8.822;2024-03-02T11:32:05;99863.88;;;23.48
66604;BMP280;53460;39.612;8.822;2024-03-02T11:34:35;99878.47;;;22.82
66604;BMP280;53460;39.612;8.822;2024-03-02T11:37:02;99854.13;;;22.43
66604;BMP280;53460;39.612;8.822;2024-03-02T11:39:28;99870.72;;;23.41
66604;BMP280;53460;39.612;8.822;2024-03-02T11:41:55;99873.72;;;22.82
66604;BMP280;53460;39.612;8.822;2024-03-02T11:44:21;99862.31;;;21.83
66604;BMP280;53460;39.612;8.822;2024-03-02T11:46:52;99867.47;;;23.10
66604;BMP280;53460;39.612;8.822;2024-03-02T11:49:41;99894.78;;;24.02
66604;BMP280;53460;39.612;8.822;2024-03-02T11:52:09;99891.31;;;24.12
66604;BMP280;53460;39.612;8.822;2024-03-02T11:54:36;99895.28;;;23.31
66604;BMP280;53460;39.612;8.822;2024-03-02T11:57:08;99878.19;;;23.45
66604;BMP280;53460;39.612;8.822;2024-03-02T11:59:33;99874.97;;;23.10
66604;BMP280;53460;39.612;8.822;2024-03-02T12:01:59;99886.47;;;23.24
66604;BMP280;53460;39.612;8.822;2024-03-02T12:04:26;99866.28;;;22.67
66604;BMP280;53460;39.612;8.822;2024-03-02T12:06:55;99863.53;;;22.79
66604;BMP280;53460;39.612;8.822;2024-03-02T12:09:22;99857.22;;;23.19
66604;BMP280;53460;39.612;8.822;2024-03-02T12:11:47;99862.78;;;22.97
66604;BMP280;53460;39.612;8.822;2024-03-02T12:14:13;99864.81;;;19.98
66604;BMP280;53460;39.612;8.822;2024-03-02T12:16:39;99846.03;;;21.95
66604;BMP280;53460;39.612;8.822;2024-03-02T12:19:08;99837.72;;;22.74
66604;BMP280;53460;39.612;8.822;2024-03-02T12:21:34;99849.06;;;23.23
66604;BMP280;53460;39.612;8.822;2024-03-02T12:24:00;99854.16;;;22.05
66604;BMP280;53460;39.612;8.822;2024-03-02T12:26:26;99860.84;;;22.75
66604;BMP280;53460;39.612;8.822;2024-03-02T12:28:51;99864.34;;;21.92
66604;BMP280;53460;39.612;8.822;2024-03-02T12:31:17;99873.69;;;22.99
66604;BMP280;53460;39.612;8.822;2024-03-02T12:33:43;99854.47;;;23.29
66604;BMP280;53460;39.612;8.822;2024-03-02T12:36:13;99846.44;;;23.01
66604;BMP280;53460;39.612;8.822;2024-03-02T12:38:43;99850.72;;;22.43
66604;BMP280;53460;39.612;8.822;2024-03-02T12:41:09;99862.94;;;22.52
66604;BMP280;53460;39.612;8.822;2024-03-02T12:43:35;99856.38;;;20.47
66604;BMP280;53460;39.612;8.822;2024-03-02T12:46:00;99853.91;;;20.89
66604;BMP280;53460;39.612;8.822;2024-03-02T12:48:26;99840.53;;;22.43
66604;BMP280;53460;39.612;8.822;2024-03-02T12:50:52;99835.75;;;22.46
66604;BMP280;53460;39.612;8.822;2024-03-02T12:53:18;99836.50;;;22.30
66604;BMP280;53460;39.612;8.822;2024-03-02T12:55:44;99843.81;;;22.78
66604;BMP280;53460;39.612;8.822;2024-03-02T12:58:19;99850.00;;;22.61
66604;BMP280;53460;39.612;8.822;2024-03-02T13:00:46;99848.63;;;22.68
66604;BMP280;53460;39.612;8.822;2024-03-02T13:03:12;99845.97;;;22.37
66604;BMP280;53460;39.612;8.822;2024-03-02T13:05:39;99856.16;;;22.49
66604;BMP280;53460;39.612;8.822;2024-03-02T13:08:06;99845.88;;;22.66
66604;BMP280;53460;39.612;8.822;2024-03-02T13:10:32;99839.91;;;21.88
66604;BMP280;53460;39.612;8.822;2024-03-02T13:12:58;99847.94;;;22.63
66604;BMP280;53460;39.612;8.822;2024-03-02T13:15:27;99843.91;;;22.48
66604;BMP280;53460;39.612;8.822;2024-03-02T13:17:52;99845.75;;;23.02
66604;BMP280;53460;39.612;8.822;2024-03-02T13:20:18;99839.00;;;22.91
66604;BMP280;53460;39.612;8.822;2024-03-02T13:22:45;99832.44;;;21.91
66604;BMP280;53460;39.612;8.822;2024-03-02T13:25:11;99833.75;;;22.32
66604;BMP280;53460;39.612;8.822;2024-03-02T13:27:36;99839.22;;;22.26
66604;BMP280;53460;39.612;8.822;2024-03-02T13:30:03;99831.06;;;21.86
66604;BMP280;53460;39.612;8.822;2024-03-02T13:32:31;99811.31;;;22.28
66604;BMP280;53460;39.612;8.822;2024-03-02T13:34:57;99833.03;;;22.46
66604;BMP280;53460;39.612;8.822;2024-03-02T13:37:22;99834.78;;;23.16
66604;BMP280;53460;39.612;8.822;2024-03-02T13:39:48;99820.59;;;22.98
66604;BMP280;53460;39.612;8.822;2024-03-02T13:42:14;99814.09;;;21.79
66604;BMP280;53460;39.612;8.822;2024-03-02T13:44:42;99809.31;;;22.12
66604;BMP280;53460;39.612;8.822;2024-03-02T13:47:10;99816.75;;;22.24
66604;BMP280;53460;39.612;8.822;2024-03-02T13:49:36;99829.00;;;20.08
66604;BMP280;53460;39.612;8.822;2024-03-02T13:52:04;99807.25;;;21.29
66604;BMP280;53460;39.612;8.822;2024-03-02T13:54:45;99803.91;;;21.51
66604;BMP280;53460;39.612;8.822;2024-03-02T13:57:11;99814.78;;;21.90
66604;BMP280;53460;39.612;8.822;2024-03-02T13:59:37;99818.81;;;21.42
66604;BMP280;53460;39.612;8.822;2024-03-02T14:02:04;99825.84;;;20.44
66604;BMP280;53460;39.612;8.822;2024-03-02T14:04:31;99820.13;;;21.29
66604;BMP280;53460;39.612;8.822;2024-03-02T14:06:58;99810.00;;;21.46
66604;BMP280;53460;39.612;8.822;2024-03-02T14:09:24;99795.72;;;21.55
66604;BMP280;53460;39.612;8.822;2024-03-02T14:11:53;99795.09;;;21.83
66604;BMP280;53460;39.612;8.822;2024-03-02T14:14:18;99798.44;;;21.31
66604;BMP280;53460;39.612;8.822;2024-03-02T14:16:44;99799.81;;;21.46
66604;BMP280;53460;39.612;8.822;2024-03-02T14:19:11;99795.09;;;21.87